Time;durP1;ratioP1;P1;durP2;ratioP2;P2;SDS_P1;SDS_P2;PMS_P1;PMS_P2;Temp;Humidity;BMP_temperature;BMP_pressure;BME280_temperature;BME280_humidity;BME280_pressure;Samples;Min_cycle;Max_cycle;Signal;HPM_P1;HPM_P2
2023/03/18 00:02:17;;;;;;;4.53;2.25;;;11.10;99.90;;;;;;5071838;28;20142;-71
2023/03/18 00:04:43;;;;;;;8.82;2.50;;;11.20;99.90;;;;;;5090377;28;20694;-71
2023/03/18 00:07:09;;;;;;;5.15;2.42;;;11.10;99.90;;;;;;5068144;28;20494;-71
2023/03/18 00:09:36;;;;;;;4.07;2.28;;;11.10;99.90;;;;;;5053256;28;20045;-71
2023/03/18 00:12:02;;;;;;;3.53;2.30;;;11.10;99.90;;;;;;5069317;28;20052;-71
2023/03/18 00:14:28;;;;;;;4.07;1.80;;;11.10;99.90;;;;;;5058523;28;20036;-71
2023/03/18 00:16:55;;;;;;;7.28;2.75;;;11.10;99.90;;;;;;5069436;28;20484;-71
2023/03/18 00:19:20;;;;;;;4.70;2.10;;;11.10;99.90;;;;;;5072547;28;20040;-71
2023/03/18 00:21:46;;;;;;;4.65;2.30;;;11.10;99.90;;;;;;5069677;28;20036;-71
2023/03/18 00:24:11;;;;;;;5.57;2.22;;;11.10;99.90;;;;;;5072270;28;20047;-71
2023/03/18 00:26:37;;;;;;;3.78;2.00;;;11.10;99.90;;;;;;5071296;28;20085;-71
2023/03/18 00:29:03;;;;;;;3.85;1.88;;;11.10;99.90;;;;;;5069992;28;20043;-71
2023/03/18 00:31:30;;;;;;;5.15;2.70;;;11.10;99.90;;;;;;5070287;28;20433;-71
2023/03/18 00:33:55;;;;;;;5.22;2.50;;;11.10;99.90;;;;;;5102976;27;20039;-72
2023/03/18 00:36:24;;;;;;;4.18;2.30;;;11.10;99.90;;;;;;5071981;28;20028;-71
2023/03/18 00:38:56;;;;;;;4.57;1.90;;;11.20;99.90;;;;;;5057228;28;20051;-71
2023/03/18 00:41:25;;;;;;;8.52;2.25;;;11.20;99.90;;;;;;5055557;28;20055;-71
2023/03/18 00:43:51;;;;;;;6.95;2.40;;;11.20;99.90;;;;;;5056643;28;20036;-71
2023/03/18 00:46:24;;;;;;;5.88;2.80;;;11.30;99.90;;;;;;5048665;28;20053;-71
2023/03/18 00:48:51;;;;;;;4.22;2.58;;;11.20;99.90;;;;;;5070411;28;20040;-71
2023/03/18 00:51:19;;;;;;;4.63;2.15;;;11.30;99.90;;;;;;5071508;28;20032;-71
2023/03/18 00:53:49;;;;;;;5.28;2.40;;;11.20;99.90;;;;;;5071857;28;20040;-71
2023/03/18 00:56:16;;;;;;;5.75;2.63;;;11.20;99.90;;;;;;5071564;28;20039;-71
2023/03/18 00:58:42;;;;;;;4.45;2.70;;;11.10;99.90;;;;;;5076050;28;20032;-71
2023/03/18 01:01:08;;;;;;;6.50;2.67;;;11.10;99.90;;;;;;5074650;28;20093;-71
2023/03/18 01:03:34;;;;;;;8.52;2.80;;;11.10;99.90;;;;;;5075270;28;20040;-71
2023/03/18 01:06:01;;;;;;;4.93;2.80;;;11.10;99.90;;;;;;5075214;28;20063;-71
2023/03/18 01:08:28;;;;;;;7.40;2.92;;;11.00;99.90;;;;;;5070682;28;20473;-71
2023/03/18 01:10:54;;;;;;;8.18;3.05;;;11.00;99.90;;;;;;5094662;28;20478;-71
2023/03/18 01:13:20;;;;;;;8.20;3.65;;;11.00;99.90;;;;;;5078083;28;20097;-71
2023/03/18 01:15:46;;;;;;;9.07;3.60;;;11.00;99.90;;;;;;5075048;28;20131;-71
2023/03/18 01:18:12;;;;;;;7.63;3.20;;;10.90;99.90;;;;;;5074030;28;20899;-71
2023/03/18 01:20:38;;;;;;;7.05;3.50;;;10.90;99.90;;;;;;5072837;28;20042;-71
2023/03/18 01:23:04;;;;;;;6.85;3.97;;;10.90;99.90;;;;;;5073910;28;20129;-71
2023/03/18 01:25:30;;;;;;;8.77;3.83;;;10.80;99.90;;;;;;5073345;28;20108;-71
2023/03/18 01:27:57;;;;;;;6.93;4.32;;;10.80;99.90;;;;;;5076076;28;20040;-71
2023/03/18 01:30:22;;;;;;;7.78;3.95;;;10.80;99.90;;;;;;5076796;28;20036;-71
2023/03/18 01:32:48;;;;;;;8.13;4.15;;;10.80;99.90;;;;;;5071394;28;20040;-71
2023/03/18 01:35:14;;;;;;;6.75;3.55;;;10.80;99.90;;;;;;5055462;28;20032;-71
2023/03/18 01:37:40;;;;;;;7.57;4.05;;;10.70;99.90;;;;;;5071009;28;20032;-71
2023/03/18 01:40:09;;;;;;;7.00;4.43;;;10.70;99.90;;;;;;5103421;27;20059;-71
2023/03/18 01:42:34;;;;;;;8.18;4.30;;;10.60;99.90;;;;;;5063932;28;20067;-71
2023/03/18 01:45:23;;;;;;;10.82;4.47;;;10.50;99.90;;;;;;5078976;28;20404;-71
2023/03/18 01:47:49;;;;;;;8.55;3.80;;;10.50;99.90;;;;;;5091331;28;20307;-71
2023/03/18 01:50:36;;;;;;;8.55;4.68;;;10.50;99.90;;;;;;5058788;28;20043;-71
2023/03/18 01:53:07;;;;;;;9.07;4.28;;;10.50;99.90;;;;;;5075857;28;20024;-71
2023/03/18 01:55:35;;;;;;;10.07;4.70;;;10.50;99.90;;;;;;5074211;28;20032;-71
2023/03/18 01:58:06;;;;;;;7.85;4.72;;;10.40;99.90;;;;;;5088687;28;20029;-71
2023/03/18 02:00:35;;;;;;;9.05;5.32;;;10.50;99.90;;;;;;5073742;28;20076;-71
2023/03/18 02:03:00;;;;;;;12.40;4.97;;;10.40;99.90;;;;;;5075192;28;20086;-71
2023/03/18 02:05:27;;;;;;;11.27;4.72;;;10.40;99.90;;;;;;5072036;28;20135;-71
2023/03/18 02:07:53;;;;;;;12.30;5.22;;;10.40;99.90;;;;;;5072971;28;20474;-71
2023/03/18 02:10:25;;;;;;;9.02;4.85;;;10.30;99.90;;;;;;5053213;28;20093;-71
2023/03/18 02:12:57;;;;;;;12.15;5.50;;;10.30;99.90;;;;;;5058124;28;20702;-71
2023/03/18 02:15:26;;;;;;;11.38;5.47;;;10.30;99.90;;;;;;5077063;28;20052;-71
2023/03/18 02:17:59;;;;;;;12.25;5.68;;;10.20;99.90;;;;;;5058247;28;20036;-71
2023/03/18 02:20:46;;;;;;;9.93;5.07;;;10.20;99.90;;;;;;5073854;28;21701;-71
2023/03/18 02:23:28;;;;;;;8.90;4.57;;;10.20;99.90;;;;;;5070260;28;20249;-71
2023/03/18 02:26:18;;;;;;;9.60;4.40;;;10.10;99.90;;;;;;5070501;28;20486;-71
2023/03/18 02:28:45;;;;;;;9.25;4.80;;;10.10;99.90;;;;;;5060652;28;20502;-71
2023/03/18 02:31:15;;;;;;;9.82;4.53;;;10.10;99.90;;;;;;5058317;28;20660;-71
2023/03/18 02:33:42;;;;;;;12.02;4.93;;;10.00;99.90;;;;;;5056365;28;20049;-71
2023/03/18 02:36:21;;;;;;;13.57;5.97;;;10.00;99.90;;;;;;5076381;28;20048;-71
2023/03/18 02:38:47;;;;;;;11.02;5.28;;;10.00;99.90;;;;;;5093274;28;20039;-71
2023/03/18 02:41:26;;;;;;;11.40;5.40;;;10.00;99.90;;;;;;5056200;28;20500;-71
2023/03/18 02:43:52;;;;;;;14.07;5.30;;;9.90;99.90;;;;;;5073032;28;20033;-71
2023/03/18 02:46:30;;;;;;;10.68;5.30;;;9.90;99.90;;;;;;5073257;28;20127;-71
2023/03/18 02:48:58;;;;;;;9.30;5.18;;;9.90;99.90;;;;;;5091068;27;20041;-71
2023/03/18 02:51:25;;;;;;;12.02;5.35;;;9.90;99.90;;;;;;5070521;28;20485;-71
2023/03/18 02:53:54;;;;;;;10.32;4.45;;;9.90;99.90;;;;;;5071773;28;20044;-71
2023/03/18 02:56:19;;;;;;;9.75;5.30;;;9.90;99.90;;;;;;5057887;28;20440;-71
2023/03/18 02:58:45;;;;;;;14.93;5.20;;;9.90;99.90;;;;;;5073966;28;20047;-71
2023/03/18 03:01:11;;;;;;;11.38;5.53;;;9.90;99.90;;;;;;5071269;28;20063;-71
2023/03/18 03:03:38;;;;;;;10.13;5.25;;;9.90;99.90;;;;;;5071722;28;20044;-71
2023/03/18 03:06:03;;;;;;;13.68;6.00;;;9.80;99.90;;;;;;5069711;28;20054;-71
2023/03/18 03:08:29;;;;;;;12.13;5.75;;;9.80;99.90;;;;;;5073746;28;20059;-71
2023/03/18 03:10:56;;;;;;;11.88;5.57;;;9.80;99.90;;;;;;5071025;28;20043;-71
2023/03/18 03:13:23;;;;;;;11.75;5.78;;;9.90;99.90;;;;;;5073610;28;20412;-71
2023/03/18 03:15:49;;;;;;;13.85;6.40;;;9.80;99.90;;;;;;5057441;28;20060;-71
2023/03/18 03:18:15;;;;;;;10.32;5.15;;;9.90;99.90;;;;;;5073724;28;20086;-71
2023/03/18 03:20:42;;;;;;;9.93;5.50;;;9.90;99.90;;;;;;5054951;28;20454;-71
2023/03/18 03:23:11;;;;;;;11.15;5.78;;;9.80;99.90;;;;;;5071983;28;20082;-71
2023/03/18 03:25:37;;;;;;;14.00;5.25;;;9.90;99.90;;;;;;5071071;28;20147;-71
2023/03/18 03:28:05;;;;;;;11.55;5.32;;;9.90;99.90;;;;;;5072994;28;20427;-71
2023/03/18 03:30:31;;;;;;;11.32;5.90;;;9.90;99.90;;;;;;5073874;28;20064;-71
2023/03/18 03:32:57;;;;;;;10.82;5.63;;;9.80;99.90;;;;;;5053545;28;20991;-71
2023/03/18 03:35:23;;;;;;;13.52;6.22;;;9.80;99.90;;;;;;5070713;28;20036;-71
2023/03/18 03:37:49;;;;;;;11.77;5.00;;;9.80;99.90;;;;;;5068809;28;20048;-71
2023/03/18 03:40:17;;;;;;;11.85;5.45;;;9.80;99.90;;;;;;5075377;28;20536;-71
2023/03/18 03:42:43;;;;;;;12.27;6.00;;;9.80;99.90;;;;;;5072696;28;20417;-71
2023/03/18 03:45:10;;;;;;;13.15;5.95;;;9.70;99.90;;;;;;5071239;28;20433;-71
2023/03/18 03:47:35;;;;;;;10.48;5.28;;;9.70;99.90;;;;;;5071458;28;20052;-71
2023/03/18 03:50:01;;;;;;;12.93;6.50;;;9.60;99.90;;;;;;5071529;28;20045;-71
2023/03/18 03:52:28;;;;;;;13.75;5.32;;;9.60;99.90;;;;;;5075488;28;20040;-71
2023/03/18 03:54:55;;;;;;;13.48;6.30;;;9.60;99.90;;;;;;5052985;28;20405;-71
2023/03/18 03:57:22;;;;;;;13.90;6.55;;;9.60;99.90;;;;;;5071137;28;20043;-71
2023/03/18 03:59:49;;;;;;;11.93;6.57;;;9.60;99.90;;;;;;5073771;28;20092;-71
2023/03/18 04:02:16;;;;;;;13.77;7.13;;;9.60;99.90;;;;;;5073867;28;20510;-71
2023/03/18 04:04:42;;;;;;;13.77;7.05;;;9.60;99.90;;;;;;5073766;28;20032;-71
2023/03/18 04:07:08;;;;;;;14.55;6.65;;;9.70;99.90;;;;;;5103819;27;20036;-71
2023/03/18 04:09:35;;;;;;;14.00;6.88;;;9.70;99.90;;;;;;5070080;28;20041;-71
2023/03/18 04:12:01;;;;;;;15.45;7.22;;;9.70;99.90;;;;;;5050528;28;20413;-71
2023/03/18 04:14:27;;;;;;;12.88;6.78;;;9.70;99.90;;;;;;5069006;28;20052;-71
2023/03/18 04:16:54;;;;;;;12.75;6.88;;;9.60;99.90;;;;;;5071009;28;21338;-71
2023/03/18 04:19:20;;;;;;;15.25;6.18;;;9.60;99.90;;;;;;5071722;28;20263;-71
2023/03/18 04:21:46;;;;;;;17.80;6.97;;;9.60;99.90;;;;;;5052661;28;20220;-71
2023/03/18 04:24:11;;;;;;;15.80;6.85;;;9.60;99.90;;;;;;5072200;28;20037;-71
2023/03/18 04:26:37;;;;;;;14.40;6.57;;;9.60;99.90;;;;;;5072913;28;20051;-71
2023/03/18 04:29:03;;;;;;;16.85;7.35;;;9.60;99.90;;;;;;5071397;28;20044;-71
2023/03/18 04:31:30;;;;;;;14.57;7.25;;;9.60;99.90;;;;;;5070373;28;20028;-71
2023/03/18 04:33:56;;;;;;;11.65;7.10;;;9.60;99.90;;;;;;5071590;28;20040;-71
2023/03/18 04:36:22;;;;;;;18.27;6.90;;;9.60;99.90;;;;;;5049942;28;20089;-71
2023/03/18 04:38:48;;;;;;;12.50;6.18;;;9.60;99.90;;;;;;5070099;28;20036;-71
2023/03/18 04:41:14;;;;;;;11.63;6.15;;;9.60;99.90;;;;;;5085633;28;20047;-71
2023/03/18 04:43:39;;;;;;;14.32;6.72;;;9.60;99.90;;;;;;5054789;28;20520;-71
2023/03/18 04:46:05;;;;;;;12.88;7.43;;;9.60;99.90;;;;;;5066058;28;20439;-71
2023/03/18 04:48:30;;;;;;;14.85;6.97;;;9.60;99.90;;;;;;5070965;28;20040;-71
2023/03/18 04:50:56;;;;;;;15.38;6.35;;;9.60;99.90;;;;;;5073093;28;20024;-71
2023/03/18 04:53:22;;;;;;;20.20;7.78;;;9.60;99.90;;;;;;5061281;28;20511;-71
2023/03/18 04:55:49;;;;;;;13.52;7.30;;;9.50;99.90;;;;;;5078877;28;20044;-71
2023/03/18 04:58:15;;;;;;;14.32;7.43;;;9.60;99.90;;;;;;5071402;28;20492;-71
2023/03/18 05:00:41;;;;;;;14.00;7.22;;;9.60;99.90;;;;;;5069253;28;20042;-71
2023/03/18 05:03:07;;;;;;;14.40;6.63;;;9.60;99.90;;;;;;5071754;28;20040;-71
2023/03/18 05:05:33;;;;;;;14.65;6.72;;;9.60;99.90;;;;;;5070928;28;20097;-71
2023/03/18 05:07:58;;;;;;;14.93;7.40;;;9.50;99.90;;;;;;5069762;28;20079;-71
2023/03/18 05:10:24;;;;;;;16.17;8.23;;;9.60;99.90;;;;;;5072626;28;20498;-71
2023/03/18 05:12:50;;;;;;;15.52;7.15;;;9.60;99.90;;;;;;5100797;28;20498;-71
2023/03/18 05:15:16;;;;;;;13.88;6.50;;;9.50;99.90;;;;;;5086483;28;20071;-71
2023/03/18 05:17:42;;;;;;;13.93;7.07;;;9.60;99.90;;;;;;5086929;28;20482;-71
2023/03/18 05:20:09;;;;;;;12.75;7.05;;;9.60;99.90;;;;;;5067492;28;20044;-71
2023/03/18 05:22:35;;;;;;;17.48;7.07;;;9.60;99.90;;;;;;5102348;28;20074;-71
2023/03/18 05:25:01;;;;;;;17.15;6.55;;;9.60;99.90;;;;;;5054453;28;20497;-71
2023/03/18 05:27:27;;;;;;;14.85;6.97;;;9.50;99.90;;;;;;5067726;28;20036;-71
2023/03/18 05:29:53;;;;;;;15.07;7.35;;;9.60;99.90;;;;;;5106837;28;20062;-71
2023/03/18 05:32:19;;;;;;;15.93;7.63;;;9.50;99.90;;;;;;5069843;28;20473;-71
2023/03/18 05:34:44;;;;;;;13.20;6.63;;;9.60;99.90;;;;;;5067564;28;20040;-71
2023/03/18 05:37:12;;;;;;;14.23;7.30;;;9.50;99.90;;;;;;5073328;28;20044;-71
2023/03/18 05:39:39;;;;;;;16.88;7.45;;;9.60;99.90;;;;;;5071685;28;20040;-71
2023/03/18 05:42:05;;;;;;;15.52;7.90;;;9.60;99.90;;;;;;5053221;28;20033;-71
2023/03/18 05:44:31;;;;;;;18.27;8.35;;;9.60;99.90;;;;;;5058269;28;20032;-71
2023/03/18 05:46:57;;;;;;;14.95;7.20;;;9.50;99.90;;;;;;5074281;28;20048;-71
2023/03/18 05:49:23;;;;;;;13.75;7.30;;;9.50;99.90;;;;;;5074291;28;20048;-71
2023/03/18 05:51:49;;;;;;;14.88;6.93;;;9.50;99.90;;;;;;5073448;28;20506;-71
2023/03/18 05:54:16;;;;;;;13.90;7.22;;;9.50;99.90;;;;;;5079648;28;20457;-71
2023/03/18 05:56:44;;;;;;;15.68;7.32;;;9.50;99.90;;;;;;5058231;28;20367;-71
2023/03/18 05:59:10;;;;;;;13.95;7.03;;;9.50;99.90;;;;;;5077673;28;20056;-71
2023/03/18 06:01:37;;;;;;;13.43;6.68;;;9.50;99.90;;;;;;5075419;28;20587;-71
2023/03/18 06:04:05;;;;;;;16.25;7.03;;;9.50;99.90;;;;;;5072414;28;20513;-71
2023/03/18 06:06:31;;;;;;;13.18;7.18;;;9.50;99.90;;;;;;5070735;28;20046;-72
2023/03/18 06:08:57;;;;;;;12.20;7.22;;;9.50;99.90;;;;;;5072168;28;20039;-71
2023/03/18 06:11:23;;;;;;;13.77;7.03;;;9.50;99.90;;;;;;5059629;28;20024;-71
2023/03/18 06:13:49;;;;;;;12.15;6.55;;;9.60;99.90;;;;;;5055708;28;20465;-71
2023/03/18 06:16:15;;;;;;;12.70;6.63;;;9.60;99.90;;;;;;5061676;28;20039;-71
2023/03/18 06:18:41;;;;;;;12.35;7.60;;;9.50;99.90;;;;;;5079938;28;20036;-71
2023/03/18 06:21:10;;;;;;;13.70;6.50;;;9.60;99.90;;;;;;5073591;28;20535;-71
2023/03/18 06:23:36;;;;;;;14.68;7.53;;;9.60;99.90;;;;;;5074722;28;21079;-71
2023/03/18 06:26:03;;;;;;;13.30;6.05;;;9.60;99.90;;;;;;5078464;28;20394;-71
2023/03/18 06:28:28;;;;;;;14.30;7.18;;;9.60;99.90;;;;;;5073861;28;20040;-71
2023/03/18 06:30:58;;;;;;;13.90;7.28;;;9.60;99.90;;;;;;5056414;28;20029;-71
2023/03/18 06:33:28;;;;;;;21.05;6.82;;;9.60;99.90;;;;;;5089474;28;20413;-71
2023/03/18 06:35:55;;;;;;;14.75;6.78;;;9.60;99.90;;;;;;5058455;28;20278;-71
2023/03/18 06:38:21;;;;;;;14.95;6.28;;;9.60;99.90;;;;;;5080088;28;20036;-71
2023/03/18 06:40:46;;;;;;;13.13;6.05;;;9.60;99.90;;;;;;5079015;28;21000;-71
2023/03/18 06:43:12;;;;;;;12.88;6.45;;;9.60;99.90;;;;;;5075120;28;20050;-71
2023/03/18 06:45:39;;;;;;;13.20;6.90;;;9.60;99.90;;;;;;5078040;28;20051;-71
2023/03/18 06:48:05;;;;;;;11.50;5.97;;;9.60;99.90;;;;;;5111415;27;20055;-71
2023/03/18 06:50:31;;;;;;;10.60;6.22;;;9.60;99.90;;;;;;5107183;27;20048;-71
2023/03/18 06:52:58;;;;;;;13.40;6.75;;;9.60;99.90;;;;;;5076364;28;20035;-71
2023/03/18 06:55:24;;;;;;;10.63;5.70;;;9.60;99.90;;;;;;5076543;28;20077;-71
2023/03/18 06:57:50;;;;;;;13.48;6.13;;;9.60;99.90;;;;;;5080608;28;20725;-71
2023/03/18 07:00:16;;;;;;;12.82;6.85;;;9.60;99.90;;;;;;5076352;28;20028;-70
2023/03/18 07:02:42;;;;;;;12.70;6.38;;;9.60;99.90;;;;;;5075619;28;20582;-71
2023/03/18 07:05:08;;;;;;;19.02;6.28;;;9.60;99.90;;;;;;5084114;28;20178;-71
2023/03/18 07:07:36;;;;;;;9.85;6.00;;;9.70;99.90;;;;;;5074218;28;20036;-71
2023/03/18 07:10:04;;;;;;;12.13;5.85;;;9.70;99.90;;;;;;5074435;28;20047;-70
2023/03/18 07:12:30;;;;;;;11.48;6.60;;;9.70;99.90;;;;;;5074169;28;20106;-71
2023/03/18 07:14:55;;;;;;;12.38;5.95;;;9.80;99.90;;;;;;5105234;27;20443;-71
2023/03/18 07:17:21;;;;;;;13.63;5.95;;;9.80;99.90;;;;;;5078350;28;20493;-71
2023/03/18 07:19:47;;;;;;;14.38;6.38;;;9.80;99.90;;;;;;5056730;28;20036;-71
2023/03/18 07:22:16;;;;;;;14.43;6.35;;;9.90;99.90;;;;;;5106859;27;20040;-71
2023/03/18 07:24:43;;;;;;;12.85;6.18;;;9.90;99.90;;;;;;5077097;28;20040;-71
2023/03/18 07:27:09;;;;;;;13.93;6.57;;;9.90;99.90;;;;;;5053690;28;20040;-72
2023/03/18 07:29:35;;;;;;;11.27;6.03;;;10.00;99.90;;;;;;5065716;28;20037;-71
2023/03/18 07:32:01;;;;;;;14.18;6.50;;;10.00;99.90;;;;;;5068177;28;20051;-71
2023/03/18 07:34:26;;;;;;;12.00;6.07;;;10.00;99.90;;;;;;5072351;28;20040;-71
2023/03/18 07:36:52;;;;;;;15.20;6.63;;;10.00;99.90;;;;;;5079233;28;20044;-73
2023/03/18 07:39:18;;;;;;;10.60;6.57;;;10.10;99.90;;;;;;5072130;28;20119;-71
2023/03/18 07:41:44;;;;;;;13.05;6.22;;;10.10;99.90;;;;;;5088677;28;20178;-71
2023/03/18 07:44:09;;;;;;;13.40;4.97;;;10.20;99.90;;;;;;5053111;28;20040;-71
2023/03/18 07:46:35;;;;;;;14.30;6.60;;;10.10;99.90;;;;;;5068651;28;20036;-71
2023/03/18 07:49:01;;;;;;;13.80;6.38;;;10.10;99.90;;;;;;5067114;28;20036;-71
2023/03/18 07:51:26;;;;;;;11.13;5.55;;;10.20;99.90;;;;;;5069186;28;20032;-71
2023/03/18 07:53:52;;;;;;;12.82;6.80;;;10.20;99.90;;;;;;5063896;28;20485;-71
2023/03/18 07:56:18;;;;;;;14.05;6.40;;;10.20;99.90;;;;;;5049136;28;20473;-71
2023/03/18 07:58:43;;;;;;;10.93;6.15;;;10.20;99.90;;;;;;5071495;28;20043;-71
2023/03/18 08:01:10;;;;;;;11.85;6.20;;;10.20;99.90;;;;;;5071838;28;20032;-71
2023/03/18 08:03:36;;;;;;;11.70;6.22;;;10.20;99.90;;;;;;5068056;28;20536;-71
2023/03/18 08:06:02;;;;;;;13.38;5.85;;;10.20;99.90;;;;;;5073040;28;20028;-71
2023/03/18 08:08:27;;;;;;;12.80;5.38;;;10.20;99.90;;;;;;5071906;28;20512;-71
2023/03/18 08:10:59;;;;;;;17.23;6.22;;;10.20;99.90;;;;;;5052462;28;21378;-71
2023/03/18 08:13:25;;;;;;;11.18;6.18;;;10.20;99.90;;;;;;5073388;28;20044;-71
2023/03/18 08:15:51;;;;;;;16.75;6.25;;;10.20;99.90;;;;;;5099563;27;20243;-71
2023/03/18 08:18:18;;;;;;;12.82;6.28;;;10.20;99.90;;;;;;5053404;28;20048;-71
2023/03/18 08:20:44;;;;;;;10.73;6.13;;;10.20;99.90;;;;;;5073402;28;20062;-71
2023/03/18 08:23:10;;;;;;;14.55;6.93;;;10.20;99.90;;;;;;5073935;28;20051;-71
2023/03/18 08:25:36;;;;;;;14.98;5.88;;;10.20;99.90;;;;;;5060474;28;20074;-71
2023/03/18 08:28:02;;;;;;;12.88;6.90;;;10.20;99.90;;;;;;5068485;28;20309;-71
2023/03/18 08:30:29;;;;;;;15.68;6.30;;;10.30;99.90;;;;;;5065122;28;20455;-71
2023/03/18 08:32:56;;;;;;;14.55;6.13;;;10.30;99.90;;;;;;5051737;28;20044;-71
2023/03/18 08:35:22;;;;;;;13.15;6.47;;;10.30;99.90;;;;;;5082624;28;20032;-71
2023/03/18 08:37:49;;;;;;;15.13;7.20;;;10.30;99.90;;;;;;5071972;28;20465;-71
2023/03/18 08:40:15;;;;;;;11.60;6.03;;;10.30;99.90;;;;;;5101325;28;20394;-71
2023/03/18 08:42:41;;;;;;;13.55;6.53;;;10.30;99.90;;;;;;5073281;28;20032;-71
2023/03/18 08:45:07;;;;;;;15.05;7.32;;;10.40;99.90;;;;;;5070868;28;20042;-71
2023/03/18 08:47:32;;;;;;;16.05;7.35;;;10.40;99.90;;;;;;5073121;28;20051;-74
2023/03/18 08:49:58;;;;;;;14.82;6.78;;;10.40;99.90;;;;;;5051921;28;20463;-75
2023/03/18 08:52:24;;;;;;;17.35;7.97;;;10.50;99.90;;;;;;5069506;28;20044;-71
2023/03/18 08:54:50;;;;;;;13.68;7.13;;;10.50;99.90;;;;;;5071503;28;20043;-71
2023/03/18 08:57:15;;;;;;;16.15;7.60;;;10.50;99.90;;;;;;5070009;28;20044;-70
2023/03/18 08:59:41;;;;;;;15.00;8.23;;;10.60;99.90;;;;;;5072240;28;20036;-71
2023/03/18 09:02:13;;;;;;;15.27;7.50;;;10.60;99.90;;;;;;5051983;28;20149;-71
2023/03/18 09:04:39;;;;;;;16.83;8.13;;;10.70;99.90;;;;;;5074823;28;20067;-71
2023/03/18 09:07:05;;;;;;;17.13;7.25;;;10.80;99.90;;;;;;5071221;28;20465;-70
2023/03/18 09:09:30;;;;;;;14.13;7.55;;;10.90;99.90;;;;;;5074216;28;20039;-70
2023/03/18 09:11:56;;;;;;;17.45;8.52;;;10.90;99.90;;;;;;5065886;28;20600;-71
2023/03/18 09:14:22;;;;;;;17.27;8.57;;;11.00;99.90;;;;;;5064141;28;20083;-71
2023/03/18 09:16:48;;;;;;;19.48;8.65;;;11.10;99.90;;;;;;5067717;28;20097;-70
2023/03/18 09:19:13;;;;;;;19.05;9.00;;;11.30;99.90;;;;;;5069653;28;20028;-71
2023/03/18 09:21:39;;;;;;;17.35;8.32;;;11.40;99.90;;;;;;5069651;28;20052;-71
2023/03/18 09:24:05;;;;;;;19.90;8.80;;;11.50;99.90;;;;;;5068020;28;20036;-71
2023/03/18 09:26:30;;;;;;;18.08;8.52;;;11.50;99.90;;;;;;5053782;28;20546;-71
2023/03/18 09:28:56;;;;;;;15.85;8.27;;;11.50;99.90;;;;;;5069590;28;20036;-71
2023/03/18 09:31:21;;;;;;;18.08;9.40;;;11.50;99.90;;;;;;5073472;28;20086;-71
2023/03/18 09:33:47;;;;;;;17.30;8.35;;;11.50;99.90;;;;;;5071075;28;20032;-71
2023/03/18 09:36:13;;;;;;;15.57;9.20;;;11.60;99.90;;;;;;5072236;28;20096;-71
2023/03/18 09:38:40;;;;;;;19.38;9.85;;;11.60;99.90;;;;;;5101324;27;20089;-71
2023/03/18 09:41:08;;;;;;;21.88;8.38;;;11.70;99.90;;;;;;5067698;28;20079;-71
2023/03/18 09:43:40;;;;;;;16.00;8.77;;;11.70;99.90;;;;;;5072609;28;20050;-70
2023/03/18 09:46:21;;;;;;;19.00;9.45;;;11.70;99.90;;;;;;5077256;28;20036;-71
2023/03/18 09:49:06;;;;;;;16.10;9.30;;;11.80;99.90;;;;;;5070777;28;20261;-71
2023/03/18 09:52:10;;;;;;;16.63;8.50;;;11.80;99.90;;;;;;5079456;28;20040;-71
2023/03/18 09:54:48;;;;;;;21.73;9.50;;;11.90;99.90;;;;;;5057967;28;20040;-71
2023/03/18 09:57:25;;;;;;;18.35;9.02;;;12.00;99.90;;;;;;5079319;28;20131;-71
2023/03/18 10:00:01;;;;;;;16.75;9.15;;;12.10;99.90;;;;;;5040056;28;20336;-71
2023/03/18 10:02:32;;;;;;;23.20;9.45;;;12.20;99.90;;;;;;5099389;27;20040;-71
2023/03/18 10:05:02;;;;;;;17.23;8.48;;;12.20;99.90;;;;;;5080813;28;20042;-71
2023/03/18 10:07:34;;;;;;;18.90;7.68;;;12.30;99.90;;;;;;5070811;28;20623;-71
2023/03/18 10:10:08;;;;;;;20.75;9.13;;;12.30;99.90;;;;;;5105531;27;20040;-71
2023/03/18 10:12:47;;;;;;;19.02;8.77;;;12.20;99.90;;;;;;5059191;28;20059;-71
2023/03/18 10:15:38;;;;;;;17.00;10.00;;;12.30;99.90;;;;;;5072124;28;20070;-71
2023/03/18 10:18:03;;;;;;;18.58;9.50;;;12.30;99.90;;;;;;5086011;28;20048;-71
2023/03/18 10:20:56;;;;;;;19.48;8.90;;;12.30;99.90;;;;;;5068827;28;20047;-71
2023/03/18 10:23:51;;;;;;;16.02;8.35;;;12.30;99.90;;;;;;5071222;28;20059;-71
2023/03/18 10:26:20;;;;;;;20.48;8.57;;;12.40;99.90;;;;;;5071095;28;20044;-71
2023/03/18 10:29:11;;;;;;;19.98;9.20;;;12.30;99.90;;;;;;5068583;28;20036;-71
2023/03/18 10:31:52;;;;;;;16.90;8.48;;;12.30;99.90;;;;;;5069354;28;20051;-71
2023/03/18 10:34:22;;;;;;;16.80;9.18;;;12.30;99.90;;;;;;5066063;28;20036;-71
2023/03/18 10:36:49;;;;;;;15.05;7.68;;;12.30;99.90;;;;;;5069387;28;20070;-71
2023/03/18 10:39:19;;;;;;;17.77;8.45;;;12.30;99.90;;;;;;5087825;27;20442;-71
2023/03/18 10:41:51;;;;;;;16.92;8.52;;;12.30;99.90;;;;;;5065403;28;20224;-71
2023/03/18 10:44:32;;;;;;;18.15;8.43;;;12.40;99.90;;;;;;5051248;28;20066;-71
2023/03/18 10:47:09;;;;;;;16.70;8.20;;;12.40;99.90;;;;;;5068404;28;20036;-71
2023/03/18 10:49:41;;;;;;;17.83;7.80;;;12.50;99.90;;;;;;5072416;28;20075;-71
2023/03/18 10:52:09;;;;;;;13.75;7.13;;;12.50;99.90;;;;;;5052255;28;20465;-71
2023/03/18 10:54:39;;;;;;;13.88;6.95;;;12.50;99.90;;;;;;5074566;28;20035;-71
2023/03/18 10:57:05;;;;;;;17.95;7.30;;;12.50;99.90;;;;;;5070932;28;20040;-71
2023/03/18 10:59:33;;;;;;;22.23;7.95;;;12.60;99.90;;;;;;5075961;28;20197;-71
2023/03/18 11:02:03;;;;;;;13.98;7.75;;;12.70;99.90;;;;;;5063623;28;20101;-71
2023/03/18 11:04:37;;;;;;;16.08;6.63;;;12.80;99.90;;;;;;5068614;28;20043;-71
2023/03/18 11:07:06;;;;;;;15.95;7.88;;;12.70;99.90;;;;;;5073991;28;20042;-71
2023/03/18 11:09:38;;;;;;;15.18;7.55;;;12.70;99.90;;;;;;5070413;28;20040;-71
2023/03/18 11:12:15;;;;;;;16.25;8.13;;;12.70;99.90;;;;;;5070959;28;20048;-71
2023/03/18 11:14:47;;;;;;;14.10;7.28;;;12.80;99.90;;;;;;5069844;28;20181;-71
2023/03/18 11:17:34;;;;;;;13.73;8.05;;;12.70;99.90;;;;;;5070941;28;20048;-71
2023/03/18 11:20:06;;;;;;;16.52;7.45;;;12.70;99.90;;;;;;5099517;27;20040;-71
2023/03/18 11:22:32;;;;;;;12.57;6.63;;;12.60;99.90;;;;;;5050706;28;20040;-71
2023/03/18 11:25:15;;;;;;;14.73;7.70;;;12.60;99.90;;;;;;5047106;28;20161;-71
2023/03/18 11:27:47;;;;;;;14.65;7.18;;;12.60;99.90;;;;;;5067039;28;20040;-71
2023/03/18 11:30:19;;;;;;;14.73;6.97;;;12.60;99.90;;;;;;5066636;28;20082;-71
2023/03/18 11:32:54;;;;;;;13.48;7.30;;;12.70;99.90;;;;;;5053287;28;20044;-71
2023/03/18 11:35:31;;;;;;;14.10;6.43;;;12.60;99.90;;;;;;5072554;28;20047;-71
2023/03/18 11:38:03;;;;;;;14.32;7.32;;;12.70;99.90;;;;;;5068887;28;20043;-71
2023/03/18 11:40:30;;;;;;;10.63;5.78;;;12.80;99.90;;;;;;5051615;28;20317;-71
2023/03/18 11:42:59;;;;;;;11.27;5.68;;;12.70;99.90;;;;;;5071165;28;20451;-71
2023/03/18 11:45:30;;;;;;;11.38;6.32;;;12.80;99.90;;;;;;5070767;28;20044;-71
2023/03/18 11:47:57;;;;;;;10.05;5.63;;;12.80;99.90;;;;;;5054884;28;20062;-71
2023/03/18 11:50:29;;;;;;;8.77;5.20;;;12.90;99.90;;;;;;5064047;28;20039;-70
2023/03/18 11:53:14;;;;;;;9.15;4.78;;;13.00;99.90;;;;;;5068313;28;20331;-71
2023/03/18 11:55:52;;;;;;;9.95;4.88;;;13.10;99.90;;;;;;5091418;28;20387;-71
2023/03/18 11:58:21;;;;;;;9.77;4.30;;;13.20;99.90;;;;;;5067771;28;20048;-71
2023/03/18 12:01:12;;;;;;;7.47;3.95;;;13.20;99.90;;;;;;5055256;28;20051;-71
2023/03/18 12:04:04;;;;;;;6.93;3.63;;;13.30;99.90;;;;;;5069126;28;20051;-71
2023/03/18 12:06:37;;;;;;;6.25;3.85;;;13.30;99.90;;;;;;5083048;28;20036;-71
2023/03/18 12:09:21;;;;;;;6.72;3.63;;;13.30;99.90;;;;;;5051369;28;20070;-71
2023/03/18 12:12:06;;;;;;;6.32;2.67;;;13.40;99.90;;;;;;5048554;28;20048;-71
2023/03/18 12:14:56;;;;;;;4.53;2.85;;;13.30;99.90;;;;;;5082560;28;20395;-70
2023/03/18 12:17:58;;;;;;;5.72;2.90;;;13.40;99.90;;;;;;5066084;28;20059;-71
2023/03/18 12:20:44;;;;;;;5.20;2.70;;;13.40;99.90;;;;;;5069132;28;20421;-71
2023/03/18 12:23:43;;;;;;;7.95;2.00;;;13.40;99.90;;;;;;5103210;27;20036;-71
2023/03/18 12:26:39;;;;;;;5.30;1.90;;;13.40;99.90;;;;;;5067812;28;20516;-71
2023/03/18 12:29:39;;;;;;;5.32;2.50;;;13.40;99.90;;;;;;5102907;27;20393;-71
2023/03/18 12:32:27;;;;;;;5.55;2.60;;;13.40;99.90;;;;;;5053485;28;20041;-71
2023/03/18 12:35:43;;;;;;;3.60;1.92;;;13.40;99.90;;;;;;5068330;28;20089;-71
2023/03/18 12:38:31;;;;;;;5.53;2.43;;;13.50;99.90;;;;;;5013814;28;20123;-71
2023/03/18 12:41:24;;;;;;;7.07;2.83;;;13.50;99.90;;;;;;5043736;28;20370;-71
2023/03/18 12:44:11;;;;;;;3.53;1.83;;;13.60;99.90;;;;;;5018780;28;20467;-71
2023/03/18 12:46:53;;;;;;;7.07;2.97;;;13.60;99.90;;;;;;5072516;28;20036;-71
2023/03/18 12:49:28;;;;;;;4.75;2.72;;;13.60;99.90;;;;;;5069290;28;20376;-71
2023/03/18 12:52:06;;;;;;;3.92;1.95;;;13.60;99.90;;;;;;5069727;28;20519;-71
2023/03/18 12:54:38;;;;;;;5.55;2.20;;;13.60;99.90;;;;;;5076010;28;20060;-71
2023/03/18 12:57:25;;;;;;;4.30;2.10;;;13.70;99.90;;;;;;5074394;28;20040;-71